CheckWX is a tool to help pilots better visualize weather data.  It is not intended as a substitute for an official pre-flight weather briefing.

16:17:56 UTC

KOXB METAR
Ocean City Municipal Airport
Ocean City, Maryland, USA
Current

60 mins ago

KOXB 291518Z AUTO 20009G15KT 10SM OVC005 21/19 A3007 RMK AO2 CIG 004V008 T02110189
Observed
May-29 @ 15:18 UTC
Wind
  • 200° at 9 KTS
  • Gusting to 15 KTS
Visibility
Flight Rules
IFR
Cloud Levels
  • Overcast at 500' AGL
Temperature
21°C / 70°F
Dewpoint
19°C / 66°F
Humidity
88%
Altimeter
30.07" Hg
Pressure
1018.32 hPa
Previous

1 hour ago

KOXB 291506Z AUTO 19007KT 10SM OVC004 21/19 A3008 RMK AO2 T02110189
Observed
May-29 @ 15:06 UTC
Wind
  • 190° at 7 KTS
Visibility
Flight Rules
LIFR
Cloud Levels
  • Overcast at 400' AGL
Temperature
21°C / 70°F
Dewpoint
19°C / 66°F
Humidity
88%
Altimeter
30.08" Hg
Pressure
1018.62 hPa
Previous

1 hour ago

KOXB 291453Z AUTO 19007G15KT 150V210 10SM OVC005 22/20 A3008 RMK AO2 SLP184 T02170200 58009
Observed
May-29 @ 14:53 UTC
Wind
  • 190° at 7 KTS
  • Gusting to 15 KTS
Visibility
Flight Rules
IFR
Cloud Levels
  • Overcast at 500' AGL
Temperature
22°C / 72°F
Dewpoint
20°C / 68°F
Humidity
88%
Altimeter
30.08" Hg
Pressure
1018.62 hPa